Terminal Aerodrome Forecast
Issued by NWS

Home | Current Version | Previous Version | Text Only | Print | Product List | Glossary On
Versions: 1 2 3 4 5 6 7 8 9 10 11 12
000
FTUS46 KHNX 190523
TAFBFL
TAF
KBFL 190523Z 1906/2006 33011KT P6SM SKC
     FM190900 35015KT P6SM SKC
     FM191900 29008KT P6SM SKC
     FM200300 35006KT P6SM SKC=

USA.gov is the U.S. government's official web portal to all federal, state and local government web resources and services.